Latest Weather Observations for Merriwa

IDN60801

Issued at 12:03 pm EDT Tuesday 19 February 2019 (issued every 10 minutes, with the page automatically refreshed every 10 minutes)

About weather observations | Map of weather stations | Latest weather observations for NSW | Other Formats
Station Details ID: 061287 Name: MERRIWA (ROSCOMMON) Lat: -32.19 Lon: 150.17 Height: 375.0 m
Data from the previous 72 hours. | See also: Recent months at Merriwa
Date/Time
EDT
Temp
°C
App
Temp
°C
Dew
Point
°C
Rel
Hum
%
Delta-T
°C
Wind Press
QNH
hPa
Press
MSL
hPa
Rain since
9am
mm
Dir  Spd
km/h
Gust
km/h
Spd
kts
Gust
kts
19/12:00pm 36.6 32.6 9.2 19 16.0 NW 20 30 11 16 1007.8 1006.0 0.0
19/11:30am 34.2 32.2 10.1 23 14.1 NNW 11 17 6 9 1008.2 1006.4 0.0
19/11:00am 32.7 31.6 11.8 28 12.5 SSW 9 13 5 7 1008.5 1006.7 0.0
19/10:30am 30.7 29.4 11.1 30 11.5 S 9 13 5 7 1009.0 1007.1 0.0
19/10:00am 30.1 28.4 11.1 31 11.1 S 11 15 6 8 1008.5 1006.7 0.0
19/09:30am 28.0 26.4 11.5 35 9.6 S 11 15 6 8 1008.5 1006.7 0.0
19/09:00am 26.1 25.0 10.7 38 8.8 SSW 7 11 4 6 1008.5 1006.7 0.0
19/08:30am 26.5 25.9 12.2 41 8.4 ESE 7 11 4 6 1008.0 1006.2 0.0
19/08:00am 25.5 24.7 10.9 40 8.4 ESE 6 7 3 4 1007.9 1006.1 0.0
19/07:30am 25.8 24.1 10.0 37 8.9 ENE 9 15 5 8 1007.7 1005.9 0.0
19/07:00am 26.1 24.0 9.9 36 9.1 N 11 17 6 9 1007.9 1006.1 0.0
19/06:30am 25.8 22.6 10.0 37 8.9 N 17 22 9 12 1007.7 1005.9 0.0
19/06:00am 24.9 22.1 10.0 39 8.4 NNE 15 20 8 11 1007.5 1005.6 0.0
19/05:30am 24.1 21.1 10.7 43 7.6 NE 17 20 9 11 1007.2 1005.3 0.0
19/05:00am 24.1 22.6 10.4 42 7.7 NNE 9 13 5 7 1007.8 1006.0 0.0
19/04:30am 23.5 22.1 9.5 41 7.7 N 7 9 4 5 1008.1 1006.3 0.0
19/04:00am 23.3 20.9 8.6 39 8.0 NE 11 13 6 7 1007.9 1006.1 0.0
19/03:30am 24.7 23.3 9.4 38 8.5 SW 7 9 4 5 1008.3 1006.5 0.0
19/03:00am 25.1 22.4 9.0 36 8.9 W 13 17 7 9 1008.7 1006.9 0.0
19/02:30am 24.1 21.7 8.5 37 8.5 SW 11 15 6 8 1008.3 1006.5 0.0
19/02:00am 23.0 21.5 9.0 41 7.7 W 7 11 4 6 1007.9 1006.1 0.0
19/01:30am 21.8 20.1 8.3 42 7.2 WSW 7 9 4 5 1007.6 1005.7 0.0
19/01:00am 22.3 20.4 7.7 39 7.8 WSW 7 9 4 5 1007.7 1005.9 0.0
19/12:30am 23.1 21.2 7.6 37 8.3 ESE 7 13 4 7 1007.6 1005.7 0.0
19/12:00am 24.5 22.0 6.7 32 9.4 NE 9 13 5 7 1007.4 1005.5 0.0
 
Date/Time
EDT
Temp
°C
App
Temp
°C
Dew
Point
°C
Rel
Hum
%
Delta-T
°C
Wind Press
QNH
hPa
Press
MSL
hPa
Rain since
9am
mm
Dir  Spd
km/h
Gust
km/h
Spd
kts
Gust
kts
18/11:30pm 24.3 21.8 6.6 32 9.3 NE 9 11 5 6 1007.5 1005.6 0.0
18/11:00pm 25.6 24.8 8.1 33 9.6 NNW 2 6 1 3 1007.9 1006.1 0.0
18/10:30pm 27.2 25.2 7.1 28 10.9 NW 7 9 4 5 1008.0 1006.2 0.0
18/10:00pm 27.5 25.1 6.8 27 11.2 WNW 9 11 5 6 1007.9 1006.1 0.0
18/09:30pm 28.4 26.0 7.1 26 11.6 WNW 9 11 5 6 1007.8 1006.0 0.0
18/09:00pm 27.9 25.8 6.6 26 11.5 W 7 9 4 5 1007.5 1005.6 0.0
18/08:30pm 29.7 27.2 6.4 23 12.6 WNW 9 9 5 5 1007.2 1005.3 0.0
18/08:00pm 31.2 29.1 5.6 20 13.8 W 6 9 3 5 1007.0 1005.1 0.0
18/07:30pm 33.9 31.2 5.4 17 15.5 W 9 11 5 6 1006.7 1004.8 0.0
18/07:00pm 35.5 31.1 4.9 15 16.7 W 17 26 9 14 1006.5 1004.6 0.0
18/06:30pm 36.4 33.3 5.6 15 17.0 WSW 11 17 6 9 1006.4 1004.5 0.0
18/06:00pm 37.1 34.3 5.2 14 17.6 WSW 9 15 5 8 1006.5 1004.6 0.0
18/05:30pm 36.6 33.0 4.8 14 17.4 W 13 24 7 13 1006.6 1004.7 0.0
18/05:00pm 38.0 35.0 5.9 14 18.0 WNW 11 15 6 8 1006.8 1004.9 0.0
18/04:30pm 37.9 34.9 5.8 14 17.9 W 11 20 6 11 1006.9 1005.0 0.0
18/04:00pm 36.4 32.9 5.6 15 17.1 SW 13 24 7 13 1007.3 1005.4 0.0
18/03:30pm 35.3 31.3 6.6 17 16.0 SSW 17 26 9 14 1007.6 1005.7 0.0
18/03:00pm 36.9 34.9 7.0 16 17.0 NW 7 17 4 9 1008.2 1006.4 0.0
18/02:30pm 36.5 33.6 6.6 16 16.8 NNE 11 17 6 9 1008.7 1006.9 0.0
18/02:00pm 35.9 33.1 7.0 17 16.3 SSW 11 20 6 11 1009.4 1007.5 0.0
18/01:30pm 35.7 32.9 8.5 19 15.7 WSW 13 20 7 11 1009.9 1008.0 0.0
18/01:00pm 34.7 32.5 9.2 21 14.8 WSW 11 20 6 11 1010.4 1008.6 0.0
18/12:30pm 34.4 32.6 10.9 24 14.0 NW 11 17 6 9 1010.9 1009.1 0.0
18/12:00pm 33.7 32.3 12.1 27 13.0 W 11 17 6 9 1011.7 1009.8 0.0
18/11:30am 31.9 30.1 12.2 30 11.8 W 13 20 7 11 1012.2 1010.3 0.0
18/11:00am 30.0 29.0 12.4 34 10.5 SSW 9 11 5 6 1012.6 1010.8 0.0
18/10:30am 28.8 28.1 13.1 38 9.4 SSW 9 13 5 7 1012.7 1010.9 0.0
18/10:00am 26.5 26.2 13.3 44 7.9 SSW 7 11 4 6 1012.9 1011.1 0.0
18/09:30am 25.2 25.1 14.0 49 6.7 S 7 11 4 6 1012.9 1011.1 0.0
18/09:00am 23.6 23.0 12.3 49 6.6 SSW 7 9 4 5 1012.9 1011.1 0.0
18/08:30am 22.6 22.6 12.5 53 5.8 S 4 7 2 4 1012.6 1010.8 0.0
18/08:00am 20.0 20.7 12.3 61 4.4 CALM 0 4 0 2 1012.6 1010.8 0.0
18/07:30am 17.1 16.3 11.2 68 3.2 WSW 6 7 3 4 1012.5 1010.7 0.0
18/07:00am 15.1 15.6 11.5 79 2.0 CALM 0 0 0 0 1012.3 1010.4 0.0
18/06:30am 15.1 14.8 11.5 79 2.0 NNE 4 6 2 3 1012.0 1010.1 0.0
18/06:00am 16.0 15.6 12.4 79 2.0 NNE 6 7 3 4 1011.5 1009.7 0.0
18/05:30am 15.9 15.4 11.9 77 2.2 NW 6 7 3 4 1011.4 1009.6 0.0
18/05:00am 15.7 15.5 11.9 78 2.1 WNW 4 6 2 3 1011.2 1009.4 0.0
18/04:30am 16.5 16.0 12.5 77 2.2 SW 7 11 4 6 1011.2 1009.4 0.0
18/04:00am 17.0 17.7 12.1 73 2.7 CALM 0 0 0 0 1011.0 1009.2 0.0
18/03:30am 17.3 18.1 12.6 74 2.7 CALM 0 0 0 0 1010.9 1009.1 0.0
18/03:00am 17.3 17.2 12.0 71 3.0 NNE 4 6 2 3 1011.1 1009.3 0.0
18/02:30am 18.8 18.4 12.5 67 3.6 NNE 6 6 3 3 1011.2 1009.4 0.0
18/02:00am 19.1 18.9 13.1 68 3.5 NE 6 6 3 3 1011.3 1009.5 0.0
18/01:30am 19.6 19.3 12.6 64 4.0 ENE 6 7 3 4 1011.7 1009.8 0.0
18/01:00am 20.8 20.0 12.8 60 4.6 E 9 11 5 6 1012.0 1010.1 0.0
18/12:30am 21.7 21.3 13.1 58 5.0 E 7 11 4 6 1012.3 1010.4 0.0
18/12:00am 22.9 21.7 13.9 57 5.3 SE 13 15 7 8 1012.4 1010.6 0.0
 
Date/Time
EDT
Temp
°C
App
Temp
°C
Dew
Point
°C
Rel
Hum
%
Delta-T
°C
Wind Press
QNH
hPa
Press
MSL
hPa
Rain since
9am
mm
Dir  Spd
km/h
Gust
km/h
Spd
kts
Gust
kts
17/11:30pm 22.3 20.5 9.5 44 7.0 SSE 9 13 5 7 1012.4 1010.6 0.0
17/11:00pm 24.0 22.1 11.7 46 7.1 ESE 13 17 7 9 1012.4 1010.6 0.0
17/10:30pm 24.6 21.8 8.5 36 8.8 ESE 13 17 7 9 1012.4 1010.6 0.0
17/10:00pm 24.0 21.4 6.3 32 9.3 ENE 9 11 5 6 1012.2 1010.3 0.0
17/09:30pm 26.3 23.6 5.8 27 10.8 E 9 13 5 7 1011.8 1009.9 0.0
17/09:00pm 27.3 24.1 6.7 27 11.1 ESE 13 17 7 9 1011.2 1009.4 0.0
17/08:30pm 25.9 23.7 5.5 27 10.6 SE 6 6 3 3 1010.9 1009.1 0.0
17/08:00pm 29.0 26.9 5.8 23 12.4 E 6 7 3 4 1010.6 1008.8 0.0
17/07:30pm 31.5 30.3 6.5 21 13.7 ESE 2 7 1 4 1010.4 1008.6 0.0
17/07:00pm 32.6 30.1 6.7 20 14.3 SE 9 13 5 7 1010.3 1008.5 0.0
17/06:30pm 33.5 31.4 5.9 18 15.1 NNW 6 13 3 7 1010.2 1008.4 0.0
17/06:00pm 33.5 30.9 5.9 18 15.1 E 9 15 5 8 1010.3 1008.5 0.0
17/05:30pm 34.0 30.5 5.5 17 15.5 ENE 13 17 7 9 1010.3 1008.5 0.0
17/05:00pm 34.2 30.8 5.7 17 15.6 ESE 13 20 7 11 1010.5 1008.7 0.0
17/04:30pm 34.0 30.9 7.1 19 15.0 SE 13 28 7 15 1010.8 1009.0 0.0
17/04:00pm 33.4 30.1 6.6 19 14.8 SE 13 20 7 11 1011.2 1009.4 0.0
17/03:30pm 33.1 30.2 6.4 19 14.7 S 11 17 6 9 1011.9 1010.0 0.0
17/03:00pm 32.9 29.7 7.0 20 14.4 SSE 13 22 7 12 1012.3 1010.4 0.0
17/02:30pm 32.2 30.2 7.1 21 13.9 NNE 7 9 4 5 1012.9 1011.1 0.0
17/02:00pm 31.7 29.0 7.4 22 13.5 S 11 19 6 10 1013.4 1011.6 0.0
17/01:30pm 31.3 29.6 8.3 24 12.9 SE 7 13 4 7 1013.8 1012.0 0.0
17/01:00pm 30.9 28.9 8.6 25 12.6 SSE 9 11 5 6 1014.2 1012.4 0.0
17/12:30pm 30.0 28.0 10.0 29 11.5 SW 11 15 6 8 1014.8 1013.0 0.0
17/12:00pm 28.5 27.0 10.7 33 10.3 SSE 9 15 5 8 1015.4 1013.6 0.0
17/11:30am 28.7 28.1 12.2 36 9.8 NNE 7 11 4 6 1015.9 1014.1 0.0
17/11:00am 26.7 26.4 13.4 43 7.9 N 7 9 4 5 1016.3 1014.5 0.0
17/10:30am 24.9 24.6 14.4 52 6.3 SSE 9 11 5 6 1016.5 1014.7 0.0
17/10:00am 24.0 24.4 14.7 56 5.6 ESE 6 9 3 5 1016.6 1014.8 0.0
17/09:30am 22.4 22.5 14.5 61 4.7 SE 7 11 4 6 1016.6 1014.8 0.0
17/09:00am 21.5 22.0 14.9 66 4.0 SE 6 9 3 5 1016.6 1014.8 0.0
17/08:30am 19.7 19.9 14.3 71 3.2 ENE 6 9 3 5 1016.5 1014.7 0.0
17/08:00am 17.8 19.3 14.7 82 1.8 CALM 0 6 0 3 1016.2 1014.4 0.0
17/07:30am 15.1 16.3 13.8 92 0.7 CALM 0 0 0 0 1016.1 1014.3 0.0
17/07:00am 13.4 13.6 12.0 91 0.8 NNE 2 6 1 3 1015.9 1014.1 0.0
17/06:30am 14.1 13.7 13.0 93 0.6 NNE 7 9 4 5 1015.4 1013.6 0.0
17/06:00am 14.3 14.1 13.0 92 0.7 ENE 6 7 3 4 1015.1 1013.3 0.0
17/05:30am 14.1 13.9 13.0 93 0.6 ENE 6 6 3 3 1015.0 1013.2 0.0
17/05:00am 15.1 14.9 13.6 91 0.9 E 7 9 4 5 1015.0 1013.2 0.0
17/04:30am 15.1 16.3 13.8 92 0.7 CALM 0 0 0 0 1015.2 1013.4 0.0
17/04:00am 14.9 16.0 13.4 91 0.8 CALM 0 0 0 0 1015.1 1013.3 0.0
17/03:30am 14.9 15.9 13.1 89 1.0 CALM 0 6 0 3 1015.4 1013.6 0.0
17/03:00am 15.2 15.1 12.2 82 1.7 NE 4 6 2 3 1015.6 1013.8 0.0
17/02:30am 16.1 16.9 13.6 85 1.4 ENE 2 6 1 3 1015.8 1014.0 0.0
17/02:00am 16.5 16.7 13.0 80 2.0 NE 4 6 2 3 1016.0 1014.2 0.0
17/01:30am 17.7 17.3 14.2 80 2.0 ENE 9 9 5 5 1016.4 1014.6 0.0
17/01:00am 17.7 17.4 13.4 76 2.5 E 7 9 4 5 1016.8 1015.0 0.0
17/12:30am 17.7 17.0 13.2 75 2.6 ESE 9 11 5 6 1016.9 1015.1 0.0
17/12:00am 19.1 18.3 14.1 73 2.9 SE 11 13 6 7 1017.1 1015.4 0.0
 
Date/Time
EDT
Temp
°C
App
Temp
°C
Dew
Point
°C
Rel
Hum
%
Delta-T
°C
Wind Press
QNH
hPa
Press
MSL
hPa
Rain since
9am
mm
Dir  Spd
km/h
Gust
km/h
Spd
kts
Gust
kts
16/11:30pm 20.4 18.7 14.7 70 3.4 ESE 17 22 9 12 1017.1 1015.4 0.0
16/11:00pm 21.1 18.8 14.7 67 3.8 ESE 20 24 11 13 1017.4 1015.6 0.0
16/10:30pm 21.5 19.3 14.4 64 4.2 ESE 19 24 10 13 1017.4 1015.6 0.0
16/10:00pm 22.3 20.7 13.9 59 5.0 E 15 20 8 11 1017.1 1015.4 0.0
16/09:30pm 23.3 20.7 13.2 53 5.9 E 19 26 10 14 1016.8 1015.0 0.0
16/09:00pm 23.7 21.5 12.0 48 6.7 E 15 19 8 10 1016.7 1014.9 0.0
16/08:30pm 24.4 21.5 11.0 43 7.6 ESE 17 22 9 12 1016.6 1014.8 0.0
16/08:00pm 25.6 21.9 10.2 38 8.7 ESE 20 26 11 14 1016.2 1014.4 0.0
16/07:30pm 26.7 22.7 9.1 33 9.8 ESE 20 26 11 14 1016.0 1014.2 0.0
16/07:00pm 27.4 23.5 8.8 31 10.3 ESE 19 28 10 15 1015.7 1013.9 0.0
16/06:30pm 28.8 24.0 9.0 29 11.1 ESE 24 32 13 17 1015.7 1013.9 0.0
16/06:00pm 29.6 25.5 8.6 27 11.8 ESE 20 28 11 15 1015.7 1013.9 0.0
16/05:30pm 30.7 27.6 9.0 26 12.3 SE 15 24 8 13 1015.7 1013.9 0.0
16/05:00pm 30.4 27.9 8.2 25 12.4 ENE 11 22 6 12 1015.7 1013.9 0.0
16/04:30pm 30.6 28.7 7.7 24 12.7 ESE 7 19 4 10 1016.1 1014.3 0.0
16/04:00pm 30.1 26.6 7.3 24 12.5 ESE 15 22 8 12 1016.6 1014.8 0.0
16/03:30pm 30.2 28.0 8.0 25 12.4 SE 9 17 5 9 1016.9 1015.1 0.0
16/03:00pm 29.7 26.8 8.2 26 12.0 ENE 13 20 7 11 1017.4 1015.6 0.0
16/02:30pm 28.6 25.7 8.3 28 11.3 SE 13 22 7 12 1018.0 1016.2 0.0
16/02:00pm 28.9 25.4 8.6 28 11.3 NE 17 22 9 12 1018.6 1016.8 0.0
16/01:30pm 28.1 24.5 9.9 32 10.3 ESE 19 33 10 18 1019.1 1017.3 0.0
16/01:00pm 27.9 24.4 10.1 33 10.1 ESE 19 30 10 16 1019.6 1017.9 0.0
16/12:30pm 26.7 23.0 10.0 35 9.4 ESE 20 32 11 17 1020.2 1018.4 0.0

Other formats

Comma delimited format used in spreadsheet applications
http://www.bom.gov.au/fwo/IDN60801/IDN60801.95754.axf

JavaScript Object Notation format (JSON) in row-major order
http://www.bom.gov.au/fwo/IDN60801/IDN60801.95754.json

Data quality

Most of these data are generated automatically and are frequently updated. Quality checks on data are not normally performed. It is possible for incorrect values to appear. Refer to information at About Latest Weather Observations and please check the disclaimer before using these data.